Time,TemperatureF,DewpointF,PressureIn,WindDirection,WindDirectionDegrees,WindSpeedMPH,WindSpeedGustMPH,Humidity,HourlyPrecipIn,Conditions,Clouds,dailyrainin,SoftwareType,DateUTC
2014-11-20 00:34:00,20.0,19.0,29.83,NNW,332,0.0,-999.0,95,13.19,,,-99.99,,2014-11-20 06:34:00,
2014-11-20 01:32:00,19.0,18.0,29.83,WNW,300,0.0,-999.0,96,13.19,,,-99.99,,2014-11-20 07:32:00,
2014-11-20 02:32:00,15.0,14.0,29.84,WNW,295,0.0,-999.0,97,13.19,,,-99.99,,2014-11-20 08:32:00,
2014-11-20 03:33:00,14.0,14.0,29.84,WNW,295,0.0,-999.0,98,13.19,,,-99.99,,2014-11-20 09:33:00,
2014-11-20 04:33:00,15.0,15.0,29.84,WNW,295,0.0,-999.0,98,13.19,,,-99.99,,2014-11-20 10:33:00,
2014-11-20 05:13:00,14.0,14.0,29.83,WNW,295,0.0,-999.0,98,13.19,,,-99.99,,2014-11-20 11:13:00,
2014-11-20 05:33:00,14.0,14.0,29.84,WNW,295,0.0,-999.0,98,13.19,,,-99.99,,2014-11-20 11:33:00,
2014-11-20 05:42:00,14.0,14.0,29.84,WNW,295,0.0,-999.0,98,13.19,,,-99.99,,2014-11-20 11:42:00,
2014-11-20 06:13:00,13.0,13.0,29.84,WNW,295,0.0,-999.0,99,13.19,,,-99.99,,2014-11-20 12:13:00,
2014-11-20 06:32:00,13.0,13.0,29.85,WNW,295,0.0,-999.0,99,13.19,,,-99.99,,2014-11-20 12:32:00,
2014-11-20 06:42:00,13.0,13.0,29.85,WNW,295,0.0,-999.0,99,13.19,,,-99.99,,2014-11-20 12:42:00,
2014-11-20 07:32:00,14.0,14.0,29.87,WNW,295,0.0,-999.0,99,13.19,,,-99.99,,2014-11-20 13:32:00,
2014-11-20 07:42:00,14.0,14.0,29.87,WNW,295,0.0,-999.0,99,13.19,,,-99.99,,2014-11-20 13:42:00,
2014-11-20 08:22:00,14.0,14.0,29.88,WNW,295,0.0,-999.0,99,13.19,,,-99.99,,2014-11-20 14:22:00,
2014-11-20 08:32:00,14.0,14.0,29.88,WNW,295,0.0,-999.0,99,13.19,,,-99.99,,2014-11-20 14:32:00,
2014-11-20 08:52:00,15.0,15.0,29.88,WNW,295,0.0,-999.0,99,13.19,,,-99.99,,2014-11-20 14:52:00,
2014-11-20 09:34:00,17.0,17.0,29.89,WNW,295,0.0,-999.0,99,13.19,,,-99.99,,2014-11-20 15:34:00,
2014-11-20 09:43:00,17.0,17.0,29.89,WNW,295,0.0,-999.0,99,13.19,,,-99.99,,2014-11-20 15:43:00,
2014-11-20 10:33:00,20.0,20.0,29.91,WNW,295,0.0,-999.0,98,13.19,,,-99.99,,2014-11-20 16:33:00,
2014-11-20 11:33:00,23.0,22.0,29.90,WNW,295,0.0,-999.0,97,13.19,,,-99.99,,2014-11-20 17:33:00,
2014-11-20 11:42:00,23.0,22.0,29.90,WNW,295,0.0,-999.0,97,13.19,,,-99.99,,2014-11-20 17:42:00,
2014-11-20 12:13:00,25.0,24.0,29.90,WNW,295,0.0,-999.0,95,13.19,,,-99.99,,2014-11-20 18:13:00,
2014-11-20 12:32:00,26.0,25.0,29.90,WNW,295,0.0,-999.0,94,13.19,,,-99.99,,2014-11-20 18:32:00,
2014-11-20 13:32:00,27.0,25.0,29.88,WNW,295,0.0,-999.0,92,13.19,,,-99.99,,2014-11-20 19:32:00,
2014-11-20 14:12:00,30.0,27.0,29.86,East,91,0.0,-999.0,90,13.19,,,-99.99,,2014-11-20 20:12:00,
2014-11-20 14:32:00,29.0,27.0,29.87,East,91,0.0,-999.0,91,13.19,,,-99.99,,2014-11-20 20:32:00,
2014-11-20 14:42:00,29.0,27.0,29.87,East,91,0.0,-999.0,91,13.19,,,-99.99,,2014-11-20 20:42:00,
2014-11-20 15:34:00,29.0,26.0,29.86,NNE,32,0.0,-999.0,90,13.19,,,-99.99,,2014-11-20 21:34:00,
2014-11-20 16:33:00,29.0,27.0,29.86,ENE,69,4.0,-999.0,91,13.19,,,-99.99,,2014-11-20 22:33:00,
2014-11-20 17:12:00,28.0,26.0,29.87,East,79,5.0,-999.0,91,13.19,,,-99.99,,2014-11-20 23:12:00,
2014-11-20 17:32:00,27.0,25.0,29.87,ENE,73,0.0,-999.0,92,13.19,,,-99.99,,2014-11-20 23:32:00,
2014-11-20 17:42:00,27.0,25.0,29.87,ENE,73,0.0,-999.0,92,13.19,,,-99.99,,2014-11-20 23:42:00,
2014-11-20 18:32:00,26.0,24.0,29.88,ENE,73,0.0,-999.0,93,13.19,,,-99.99,,2014-11-21 00:32:00,
2014-11-20 18:42:00,26.0,24.0,29.88,ENE,73,0.0,-999.0,93,13.19,,,-99.99,,2014-11-21 00:42:00,
2014-11-20 19:32:00,24.0,23.0,29.88,ENE,73,0.0,-999.0,94,13.19,,,-99.99,,2014-11-21 01:32:00,
2014-11-20 19:42:00,24.0,23.0,29.88,ENE,73,0.0,-999.0,94,13.19,,,-99.99,,2014-11-21 01:42:00,
2014-11-20 20:32:00,22.0,21.0,29.89,ENE,73,0.0,-999.0,96,13.19,,,-99.99,,2014-11-21 02:32:00,